createdAt,value
2022-08-02T00:00:31.270Z,7.49
2022-08-02T00:01:30.327Z,7.55
2022-08-02T00:02:30.244Z,7.60
2022-08-02T00:03:30.864Z,7.67
2022-08-02T00:04:30.209Z,7.62
2022-08-02T00:05:30.194Z,7.56
2022-08-02T00:06:30.169Z,7.50
2022-08-02T00:07:30.169Z,7.45
2022-08-02T00:08:30.178Z,7.50
2022-08-02T00:09:30.150Z,7.53
2022-08-02T00:10:30.473Z,7.59
2022-08-02T00:11:30.122Z,7.66
2022-08-02T00:12:30.122Z,7.67
2022-08-02T00:13:30.132Z,7.74
2022-08-02T00:14:30.095Z,7.74
2022-08-02T00:15:30.084Z,7.71
2022-08-02T00:16:37.951Z,7.78
2022-08-02T00:17:31.041Z,7.89
2022-08-02T00:18:30.058Z,8.02
2022-08-02T00:19:30.027Z,8.14
2022-08-02T00:20:29.994Z,8.22
2022-08-02T00:21:29.984Z,8.30
2022-08-02T00:22:29.945Z,8.32
2022-08-02T00:23:29.953Z,8.28
2022-08-02T00:24:32.634Z,8.20
2022-08-02T00:25:29.934Z,8.17
2022-08-02T00:26:29.923Z,8.17
2022-08-02T00:27:29.905Z,8.18
2022-08-02T00:28:34.976Z,8.20
2022-08-02T00:29:29.893Z,8.21
2022-08-02T00:30:29.834Z,8.15
2022-08-02T00:31:29.855Z,8.07
2022-08-02T00:32:29.925Z,8.00
2022-08-02T00:34:29.878Z,7.89
2022-08-02T00:34:33.016Z,7.79
2022-08-02T00:35:30.776Z,7.67
2022-08-02T00:36:29.783Z,7.62
2022-08-02T00:37:29.841Z,7.58
2022-08-02T00:38:29.746Z,7.49
2022-08-02T00:39:34.442Z,7.44
2022-08-02T00:40:30.735Z,7.40
2022-08-02T00:41:29.722Z,7.38
2022-08-02T00:42:30.577Z,7.34
2022-08-02T00:43:29.686Z,7.29
2022-08-02T00:44:29.681Z,7.24
2022-08-02T00:46:02.048Z,7.24
2022-08-02T00:46:30.676Z,7.23
2022-08-02T00:47:29.607Z,7.20
2022-08-02T00:48:29.608Z,7.16
2022-08-02T00:49:29.718Z,7.09
2022-08-02T00:50:29.637Z,7.08
2022-08-02T00:51:29.589Z,7.08
2022-08-02T00:52:29.629Z,7.08
2022-08-02T00:53:29.549Z,7.09
2022-08-02T00:54:29.536Z,7.17
2022-08-02T00:55:31.085Z,7.26
2022-08-02T00:56:29.519Z,7.34
2022-08-02T00:57:29.566Z,7.41
2022-08-02T00:58:29.660Z,7.52
2022-08-02T00:59:29.514Z,7.60
2022-08-02T01:00:29.987Z,7.67
2022-08-02T01:01:29.537Z,7.74
2022-08-02T01:02:29.567Z,7.79
2022-08-02T01:03:29.613Z,7.81
2022-08-02T01:04:30.618Z,7.82
2022-08-02T01:05:29.502Z,7.81
2022-08-02T01:06:29.419Z,7.81
2022-08-02T01:07:29.374Z,7.78
2022-08-02T01:08:31.787Z,7.78
2022-08-02T01:09:29.404Z,7.78
2022-08-02T01:10:29.355Z,7.78
2022-08-02T01:11:29.351Z,7.78
2022-08-02T01:12:29.304Z,7.77
2022-08-02T01:13:29.325Z,7.78
2022-08-02T01:14:29.371Z,7.77
2022-08-02T01:15:36.170Z,7.77
2022-08-02T01:16:30.292Z,7.82
2022-08-02T01:17:29.375Z,7.79
2022-08-02T01:18:29.249Z,7.78
2022-08-02T01:19:29.316Z,7.77
2022-08-02T01:20:29.288Z,7.74
2022-08-02T01:21:29.225Z,7.74
2022-08-02T01:22:45.167Z,7.71
2022-08-02T01:23:30.165Z,7.69
2022-08-02T01:24:29.136Z,7.67
2022-08-02T01:25:29.179Z,7.69
2022-08-02T01:26:29.156Z,7.67
2022-08-02T01:27:29.231Z,7.63
2022-08-02T01:28:29.087Z,7.62
2022-08-02T01:29:29.078Z,7.60
2022-08-02T01:30:29.053Z,7.60
2022-08-02T01:31:29.016Z,7.59
2022-08-02T01:32:29.027Z,7.60
2022-08-02T01:33:28.987Z,7.59
2022-08-02T01:34:28.987Z,7.58
2022-08-02T01:35:29.851Z,7.60
2022-08-02T01:36:29.947Z,7.63
2022-08-02T01:37:28.960Z,7.66
2022-08-02T01:38:28.916Z,7.67
2022-08-02T01:39:32.568Z,7.71
2022-08-02T01:40:28.974Z,7.77
2022-08-02T01:41:28.869Z,7.82
2022-08-02T01:42:28.868Z,7.89
2022-08-02T01:43:28.879Z,7.94
2022-08-02T01:44:28.821Z,7.99
2022-08-02T01:45:28.839Z,8.03
2022-08-02T01:46:28.801Z,8.03
2022-08-02T01:47:28.791Z,8.03
2022-08-02T01:48:28.772Z,8.02
2022-08-02T01:49:28.815Z,8.03
2022-08-02T01:50:28.738Z,8.08
2022-08-02T01:51:28.749Z,8.08
2022-08-02T01:52:29.710Z,8.08
2022-08-02T01:53:28.730Z,8.07
2022-08-02T01:54:28.722Z,8.04
2022-08-02T01:55:34.975Z,8.04
2022-08-02T01:56:29.650Z,8.03
2022-08-02T01:57:28.653Z,8.04
2022-08-02T01:58:28.662Z,8.03
2022-08-02T01:59:28.644Z,7.97
2022-08-02T02:00:28.613Z,7.89
2022-08-02T02:01:28.673Z,7.78
2022-08-02T02:02:31.673Z,7.71
2022-08-02T02:03:28.610Z,7.63
2022-08-02T02:04:28.554Z,7.58
2022-08-02T02:05:28.541Z,7.53
2022-08-02T02:06:28.552Z,7.47
2022-08-02T02:07:28.542Z,7.42
2022-08-02T02:08:28.511Z,7.42
2022-08-02T02:09:28.492Z,7.40
2022-08-02T02:10:28.502Z,7.37
2022-08-02T02:12:13.077Z,7.38
2022-08-02T02:12:29.486Z,7.38
2022-08-02T02:13:33.301Z,7.41
2022-08-02T02:14:29.428Z,7.40
2022-08-02T02:15:28.433Z,7.35
2022-08-02T02:16:28.393Z,7.38
2022-08-02T02:18:10.487Z,7.40
2022-08-02T02:18:29.369Z,7.40
2022-08-02T02:19:28.353Z,7.35
2022-08-02T02:20:28.356Z,7.31
2022-08-02T02:21:28.334Z,7.23
2022-08-02T02:22:28.307Z,7.16
2022-08-02T02:23:30.129Z,7.07
2022-08-02T02:24:29.287Z,7.02
2022-08-02T02:25:28.274Z,6.99
2022-08-02T02:26:29.594Z,6.97
2022-08-02T02:27:28.245Z,6.97
2022-08-02T02:28:28.235Z,6.95
2022-08-02T02:29:28.222Z,6.90
2022-08-02T02:30:28.208Z,6.89
2022-08-02T02:31:28.209Z,6.84
2022-08-02T02:32:28.196Z,6.84
2022-08-02T02:33:29.665Z,6.83
2022-08-02T02:34:28.154Z,6.83
2022-08-02T02:35:28.126Z,6.81
2022-08-02T02:36:28.119Z,6.73
2022-08-02T02:37:28.101Z,6.65
2022-08-02T02:38:28.080Z,6.51
2022-08-02T02:39:28.128Z,6.40
2022-08-02T02:40:28.101Z,6.29
2022-08-02T02:41:29.182Z,6.18
2022-08-02T02:42:28.039Z,6.09
2022-08-02T02:43:28.038Z,6.06
2022-08-02T02:44:28.030Z,6.03
2022-08-02T02:45:28.021Z,6.00
2022-08-02T02:46:27.992Z,6.01
2022-08-02T02:47:41.051Z,6.06
2022-08-02T02:48:29.007Z,6.10
2022-08-02T02:49:27.976Z,6.13
2022-08-02T02:50:27.930Z,6.18
2022-08-02T02:51:27.921Z,6.16
2022-08-02T02:52:27.930Z,6.18
2022-08-02T02:53:27.919Z,6.16
2022-08-02T02:54:34.223Z,6.14
2022-08-02T02:55:28.840Z,6.06
2022-08-02T02:56:27.872Z,6.01
2022-08-02T02:57:27.824Z,5.98
2022-08-02T02:58:28.969Z,5.92
2022-08-02T02:59:27.822Z,5.85
2022-08-02T03:00:27.772Z,5.88
2022-08-02T03:01:55.620Z,5.91
2022-08-02T03:02:28.772Z,5.91
2022-08-02T03:03:27.752Z,5.92
2022-08-02T03:04:27.734Z,5.92
2022-08-02T03:05:28.731Z,5.93
2022-08-02T03:06:27.721Z,5.95
2022-08-02T03:07:27.703Z,5.93
2022-08-02T03:08:27.673Z,5.93
2022-08-02T03:09:27.695Z,6.01
2022-08-02T03:10:27.647Z,6.06
2022-08-02T03:11:27.668Z,6.13
2022-08-02T03:12:31.787Z,6.16
2022-08-02T03:13:33.082Z,6.25
2022-08-02T03:14:28.624Z,6.26
2022-08-02T03:15:27.575Z,6.30
2022-08-02T03:16:27.579Z,6.35
2022-08-02T03:17:27.537Z,6.40
2022-08-02T03:18:27.538Z,6.46
2022-08-02T03:19:33.405Z,6.51
2022-08-02T03:20:28.544Z,6.58
2022-08-02T03:21:27.526Z,6.65
2022-08-02T03:22:27.526Z,6.71
2022-08-02T03:23:27.478Z,6.76
2022-08-02T03:24:28.286Z,6.81
2022-08-02T03:25:27.456Z,6.91
2022-08-02T03:26:27.417Z,6.99
2022-08-02T03:27:27.408Z,7.04
2022-08-02T03:28:27.404Z,7.07
2022-08-02T03:29:30.350Z,7.09
2022-08-02T03:30:28.368Z,7.13
2022-08-02T03:31:27.357Z,7.15
2022-08-02T03:32:28.402Z,7.16
2022-08-02T03:33:27.309Z,7.17
2022-08-02T03:34:27.300Z,7.17
2022-08-02T03:35:27.296Z,7.16
2022-08-02T03:36:27.314Z,7.15
2022-08-02T03:37:27.291Z,7.20
2022-08-02T03:38:28.997Z,7.26
2022-08-02T03:39:27.229Z,7.26
2022-08-02T03:40:27.233Z,7.27
2022-08-02T03:41:27.244Z,7.29
2022-08-02T03:42:27.246Z,7.35
2022-08-02T03:43:28.687Z,7.41
2022-08-02T03:44:27.161Z,7.45
2022-08-02T03:45:27.210Z,7.50
2022-08-02T03:46:27.156Z,7.52
2022-08-02T03:47:27.150Z,7.50
2022-08-02T03:48:34.316Z,7.52
2022-08-02T03:49:28.225Z,7.49
2022-08-02T03:50:27.105Z,7.47
2022-08-02T03:51:27.073Z,7.53
2022-08-02T03:52:27.483Z,7.60
2022-08-02T03:53:27.048Z,7.71
2022-08-02T03:54:33.012Z,7.71
2022-08-02T03:55:28.064Z,7.75
2022-08-02T03:56:27.022Z,7.78
2022-08-02T03:57:26.985Z,7.85
2022-08-02T03:58:26.963Z,7.92
2022-08-02T03:59:26.966Z,7.93
2022-08-02T04:00:27.962Z,7.96
2022-08-02T04:01:27.010Z,7.96
2022-08-02T04:02:26.914Z,7.94
2022-08-02T04:03:26.914Z,7.94
2022-08-02T04:04:26.936Z,7.97
2022-08-02T04:05:26.868Z,8.03
2022-08-02T04:06:27.160Z,8.04
2022-08-02T04:08:34.456Z,8.10
2022-08-02T04:08:35.965Z,8.11
2022-08-02T04:09:27.825Z,8.15
2022-08-02T04:10:26.915Z,8.17
2022-08-02T04:11:26.839Z,8.20
2022-08-02T04:12:26.860Z,8.29
2022-08-02T04:13:31.332Z,8.33
2022-08-02T04:14:27.758Z,8.39
2022-08-02T04:15:26.747Z,8.44
2022-08-02T04:16:26.735Z,8.45
2022-08-02T04:17:26.721Z,8.48
2022-08-02T04:18:26.707Z,8.55
2022-08-02T04:19:26.687Z,8.58
2022-08-02T04:20:26.662Z,8.66
2022-08-02T04:21:26.666Z,8.72
2022-08-02T04:22:27.649Z,8.76
2022-08-02T04:23:26.630Z,8.84
2022-08-02T04:24:26.683Z,8.86
2022-08-02T04:25:36.449Z,8.90
2022-08-02T04:26:28.465Z,8.93
2022-08-02T04:27:50.814Z,8.96
2022-08-02T04:28:29.108Z,8.96
2022-08-02T04:29:26.614Z,8.99
2022-08-02T04:30:26.519Z,9.04
2022-08-02T04:31:26.502Z,9.04
2022-08-02T04:32:26.518Z,9.09
2022-08-02T04:33:26.480Z,9.10
2022-08-02T04:34:26.537Z,9.16
2022-08-02T04:35:26.490Z,9.20
2022-08-02T04:36:31.702Z,9.23
2022-08-02T04:37:27.439Z,9.24
2022-08-02T04:38:26.419Z,9.27
2022-08-02T04:39:26.431Z,9.28
2022-08-02T04:40:26.375Z,9.28
2022-08-02T04:41:26.401Z,9.27
2022-08-02T04:42:26.396Z,9.24
2022-08-02T04:43:26.382Z,9.21
2022-08-02T04:44:26.354Z,9.23
2022-08-02T04:45:26.390Z,9.23
2022-08-02T04:46:26.315Z,9.21
2022-08-02T04:48:03.535Z,9.18
2022-08-02T04:48:27.354Z,9.16
2022-08-02T04:49:26.307Z,9.15
2022-08-02T04:50:26.265Z,9.12
2022-08-02T04:51:38.190Z,9.09
2022-08-02T04:52:27.224Z,9.05
2022-08-02T04:53:26.215Z,9.01
2022-08-02T04:54:26.208Z,8.97
2022-08-02T04:55:26.206Z,8.91
2022-08-02T04:56:26.183Z,8.90
2022-08-02T04:57:27.109Z,8.88
2022-08-02T04:58:41.503Z,8.87
2022-08-02T04:59:27.144Z,8.86
2022-08-02T05:00:26.213Z,8.86
2022-08-02T05:01:26.099Z,8.87
2022-08-02T05:02:26.077Z,8.86
2022-08-02T05:03:27.029Z,8.84
2022-08-02T05:04:26.127Z,8.84
2022-08-02T05:05:26.046Z,8.84
2022-08-02T05:06:26.011Z,8.83
2022-08-02T05:07:26.054Z,8.81
2022-08-02T05:08:26.017Z,8.81
2022-08-02T05:09:26.009Z,8.76
2022-08-02T05:10:25.988Z,8.73
2022-08-02T05:11:34.356Z,8.72
2022-08-02T05:12:27.073Z,8.68
2022-08-02T05:13:26.004Z,8.63
2022-08-02T05:14:25.948Z,8.65
2022-08-02T05:15:28.322Z,8.65
2022-08-02T05:16:31.361Z,8.71
2022-08-02T05:17:26.894Z,8.73
2022-08-02T05:18:25.881Z,8.76
2022-08-02T05:19:25.891Z,8.76
2022-08-02T05:20:25.852Z,8.75
2022-08-02T05:21:26.838Z,8.71
2022-08-02T05:22:25.834Z,8.72
2022-08-02T05:23:25.789Z,8.79
2022-08-02T05:24:25.826Z,8.88
2022-08-02T05:25:25.811Z,8.97
2022-08-02T05:26:25.805Z,9.09
2022-08-02T05:27:25.765Z,9.18
2022-08-02T05:28:25.735Z,9.23
2022-08-02T05:29:25.716Z,9.23
2022-08-02T05:30:25.703Z,9.25
2022-08-02T05:31:25.674Z,9.25
2022-08-02T05:32:25.923Z,9.25
2022-08-02T05:33:25.684Z,9.27
2022-08-02T05:34:25.645Z,9.34
2022-08-02T05:35:25.605Z,9.42
2022-08-02T05:36:25.614Z,9.52
2022-08-02T05:37:25.655Z,9.61
2022-08-02T05:38:26.616Z,9.78
2022-08-02T05:39:25.597Z,9.88
2022-08-02T05:40:26.565Z,10.00
2022-08-02T05:41:25.526Z,10.10
2022-08-02T05:42:25.546Z,10.21
2022-08-02T05:43:25.506Z,10.30
2022-08-02T05:44:25.508Z,10.40
2022-08-02T05:45:25.487Z,10.47
2022-08-02T05:46:25.473Z,10.56
2022-08-02T05:47:25.491Z,10.63
2022-08-02T05:48:30.851Z,10.68
2022-08-02T05:49:26.477Z,10.71
2022-08-02T05:50:25.447Z,10.77
2022-08-02T05:51:25.434Z,10.86
2022-08-02T05:52:25.380Z,11.02
2022-08-02T05:53:25.361Z,11.27
2022-08-02T05:54:25.340Z,11.47
2022-08-02T05:55:25.378Z,11.70
2022-08-02T05:56:25.363Z,12.04
2022-08-02T05:57:25.366Z,12.34
2022-08-02T05:58:25.292Z,12.64
2022-08-02T05:59:25.290Z,12.97
2022-08-02T06:00:25.260Z,13.25
2022-08-02T06:01:25.311Z,13.46
2022-08-02T06:02:29.994Z,13.59
2022-08-02T06:03:26.231Z,13.80
2022-08-02T06:04:25.200Z,13.99
2022-08-02T06:05:25.210Z,14.17
2022-08-02T06:06:25.192Z,14.35
2022-08-02T06:07:25.554Z,14.54
2022-08-02T06:08:25.134Z,14.68
2022-08-02T06:09:27.027Z,14.86
2022-08-02T06:10:25.150Z,15.01
2022-08-02T06:11:25.131Z,14.98
2022-08-02T06:12:25.176Z,15.09
2022-08-02T06:13:25.064Z,15.26
2022-08-02T06:14:25.129Z,15.48
2022-08-02T06:15:26.073Z,15.64
2022-08-02T06:16:32.088Z,15.75
2022-08-02T06:17:26.090Z,15.82
2022-08-02T06:18:28.399Z,15.92
2022-08-02T06:19:25.003Z,16.06
2022-08-02T06:20:25.035Z,16.22
2022-08-02T06:22:31.755Z,16.40
2022-08-02T06:22:33.596Z,16.34
2022-08-02T06:23:25.960Z,16.58
2022-08-02T06:24:24.925Z,16.67
2022-08-02T06:25:49.714Z,16.88
2022-08-02T06:26:25.916Z,17.08
2022-08-02T06:27:24.896Z,17.14
2022-08-02T06:28:24.976Z,17.17
2022-08-02T06:29:24.851Z,17.36
2022-08-02T06:30:24.855Z,17.53
2022-08-02T06:31:25.067Z,17.70
2022-08-02T06:32:25.655Z,17.87
2022-08-02T06:33:24.819Z,18.04
2022-08-02T06:34:24.800Z,17.95
2022-08-02T06:35:24.819Z,18.07
2022-08-02T06:36:24.755Z,18.07
2022-08-02T06:37:24.789Z,18.12
2022-08-02T06:38:24.739Z,17.99
2022-08-02T06:39:24.720Z,18.03
2022-08-02T06:40:24.716Z,18.15
2022-08-02T06:41:24.715Z,18.31
2022-08-02T06:42:26.944Z,18.46
2022-08-02T06:43:24.697Z,18.61
2022-08-02T06:45:25.631Z,18.74
2022-08-02T06:46:37.667Z,18.86
2022-08-02T06:47:25.653Z,18.98
2022-08-02T06:48:24.601Z,19.18
2022-08-02T06:49:24.621Z,19.43
2022-08-02T06:50:25.566Z,19.61
2022-08-02T06:51:26.014Z,19.51
2022-08-02T06:52:28.162Z,19.58
2022-08-02T06:53:24.554Z,19.65
2022-08-02T06:54:24.527Z,19.70
2022-08-02T06:55:24.485Z,19.54
2022-08-02T06:56:24.612Z,19.60
2022-08-02T06:57:24.497Z,19.78
2022-08-02T06:58:24.458Z,19.93
2022-08-02T06:59:24.467Z,20.13
2022-08-02T07:00:24.468Z,20.27
2022-08-02T07:01:24.438Z,20.25
2022-08-02T07:02:24.431Z,20.43
2022-08-02T07:03:24.419Z,20.65
2022-08-02T07:04:24.388Z,20.83
2022-08-02T07:05:24.369Z,21.01
2022-08-02T07:06:25.239Z,21.08
2022-08-02T07:07:24.340Z,21.23
2022-08-02T07:08:24.313Z,21.27
2022-08-02T07:09:24.506Z,21.34
2022-08-02T07:10:24.403Z,21.36
2022-08-02T07:11:24.301Z,21.45
2022-08-02T07:12:24.282Z,21.59
2022-08-02T07:13:24.250Z,21.76
2022-08-02T07:14:24.223Z,21.76
2022-08-02T07:15:24.283Z,21.94
2022-08-02T07:16:24.225Z,22.10
2022-08-02T07:17:24.207Z,22.10
2022-08-02T07:18:24.238Z,22.10
2022-08-02T07:19:28.557Z,21.92
2022-08-02T07:20:25.135Z,21.94
2022-08-02T07:21:57.280Z,22.09
2022-08-02T07:22:25.128Z,22.22
2022-08-02T07:23:24.162Z,22.37
2022-08-02T07:24:24.088Z,22.56
2022-08-02T07:25:24.080Z,22.67
2022-08-02T07:26:24.078Z,22.74
2022-08-02T07:27:24.128Z,22.67
2022-08-02T07:28:24.850Z,22.71
2022-08-02T07:29:24.009Z,22.77
2022-08-02T07:30:24.162Z,22.77
2022-08-02T07:31:24.003Z,22.92
2022-08-02T07:32:24.011Z,22.97
2022-08-02T07:33:38.165Z,22.92
2022-08-02T07:34:24.974Z,22.80
2022-08-02T07:35:23.973Z,22.93
2022-08-02T07:36:24.107Z,23.11
2022-08-02T07:37:53.388Z,23.32
2022-08-02T07:38:24.916Z,23.60
2022-08-02T07:39:23.897Z,23.68
2022-08-02T07:40:23.934Z,23.62
2022-08-02T07:41:23.856Z,23.67
2022-08-02T07:42:23.836Z,23.72
2022-08-02T07:43:23.835Z,23.79
2022-08-02T07:44:23.825Z,23.77
2022-08-02T07:45:23.809Z,23.85
2022-08-02T07:46:24.707Z,23.80
2022-08-02T07:47:23.788Z,23.83
2022-08-02T07:48:23.767Z,23.82
2022-08-02T07:49:23.903Z,24.00
2022-08-02T07:50:23.749Z,24.02
2022-08-02T07:51:23.767Z,24.23
2022-08-02T07:52:23.753Z,24.27
2022-08-02T07:53:49.970Z,24.42
2022-08-02T07:54:24.680Z,24.52
2022-08-02T07:55:23.682Z,24.68
2022-08-02T07:56:23.671Z,24.87
2022-08-02T07:57:23.682Z,25.00
2022-08-02T07:58:23.662Z,25.05
2022-08-02T07:59:23.642Z,25.17
2022-08-02T08:00:23.597Z,25.43
2022-08-02T08:01:23.673Z,25.31
2022-08-02T08:02:23.597Z,25.31
2022-08-02T08:03:25.563Z,25.34
2022-08-02T08:04:23.577Z,25.30
2022-08-02T08:05:23.598Z,25.35
2022-08-02T08:06:28.591Z,25.24
2022-08-02T08:07:24.526Z,25.37
2022-08-02T08:08:23.486Z,25.50
2022-08-02T08:09:23.498Z,25.54
2022-08-02T08:10:23.495Z,25.54
2022-08-02T08:11:23.509Z,25.44
2022-08-02T08:12:23.438Z,25.52
2022-08-02T08:13:23.428Z,25.50
2022-08-02T08:14:24.871Z,25.43
2022-08-02T08:15:23.533Z,25.62
2022-08-02T08:16:23.444Z,25.59
2022-08-02T08:17:23.412Z,25.50
2022-08-02T08:18:23.372Z,25.53
2022-08-02T08:19:34.920Z,25.64
2022-08-02T08:20:24.373Z,25.89
2022-08-02T08:21:23.311Z,26.01
2022-08-02T08:22:23.323Z,25.98
2022-08-02T08:23:23.375Z,26.02
2022-08-02T08:24:23.265Z,26.28
2022-08-02T08:25:23.274Z,26.35
2022-08-02T08:26:23.315Z,26.46
2022-08-02T08:27:23.239Z,26.49
2022-08-02T08:28:23.259Z,26.40
2022-08-02T08:29:23.227Z,26.40
2022-08-02T08:30:23.199Z,26.43
2022-08-02T08:31:23.230Z,26.65
2022-08-02T08:32:23.712Z,26.72
2022-08-02T08:33:23.147Z,26.81
2022-08-02T08:34:23.176Z,27.02
2022-08-02T08:35:23.159Z,26.99
2022-08-02T08:36:23.180Z,26.89
2022-08-02T08:37:23.129Z,26.84
2022-08-02T08:38:23.132Z,26.98
2022-08-02T08:39:23.102Z,26.94
2022-08-02T08:40:23.101Z,26.84
2022-08-02T08:41:23.073Z,26.96
2022-08-02T08:42:23.083Z,26.87
2022-08-02T08:43:23.062Z,26.98
2022-08-02T08:44:23.161Z,27.06
2022-08-02T08:45:23.061Z,27.23
2022-08-02T08:46:23.005Z,27.31
2022-08-02T08:47:22.975Z,27.48
2022-08-02T08:48:31.108Z,27.71
2022-08-02T08:49:24.100Z,27.77
2022-08-02T08:50:25.441Z,27.76
2022-08-02T08:51:22.995Z,27.85
2022-08-02T08:52:22.908Z,27.73
2022-08-02T08:53:22.928Z,27.96
2022-08-02T08:54:23.902Z,28.07
2022-08-02T08:55:22.948Z,28.11
2022-08-02T08:56:22.982Z,27.80
2022-08-02T08:57:23.083Z,27.71
2022-08-02T08:58:22.925Z,27.82
2022-08-02T08:59:22.854Z,27.88
2022-08-02T09:00:23.413Z,28.06
2022-08-02T09:01:22.983Z,28.09
2022-08-02T09:02:27.786Z,28.19
2022-08-02T09:03:23.795Z,28.19
2022-08-02T09:04:22.816Z,28.31
2022-08-02T09:05:22.755Z,28.41
2022-08-02T09:06:23.035Z,28.54
2022-08-02T09:07:22.964Z,28.46
2022-08-02T09:08:22.780Z,28.47
2022-08-02T09:09:22.802Z,28.31
2022-08-02T09:10:22.724Z,28.26
2022-08-02T09:11:22.733Z,28.22
2022-08-02T09:12:22.674Z,28.22
2022-08-02T09:13:38.444Z,28.17
2022-08-02T09:14:23.660Z,28.31
2022-08-02T09:15:22.623Z,28.25
2022-08-02T09:16:22.660Z,28.32
2022-08-02T09:17:22.893Z,28.17
2022-08-02T09:18:23.612Z,27.79
2022-08-02T09:19:22.674Z,27.17
2022-08-02T09:20:26.064Z,27.21
2022-08-02T09:21:23.619Z,27.05
2022-08-02T09:22:22.587Z,27.14
2022-08-02T09:23:22.524Z,27.29
2022-08-02T09:24:22.515Z,27.33
2022-08-02T09:25:22.586Z,27.39
2022-08-02T09:26:22.943Z,27.50
2022-08-02T09:27:22.489Z,27.67
2022-08-02T09:28:22.465Z,27.74
2022-08-02T09:29:22.480Z,27.89
2022-08-02T09:30:23.130Z,28.09
2022-08-02T09:31:22.445Z,28.25
2022-08-02T09:32:22.407Z,28.11
2022-08-02T09:33:22.390Z,28.33
2022-08-02T09:34:22.367Z,28.47
2022-08-02T09:35:23.244Z,28.53
2022-08-02T09:36:22.455Z,28.54
2022-08-02T09:37:22.431Z,28.44
2022-08-02T09:38:22.330Z,28.19
2022-08-02T09:39:22.332Z,28.31
2022-08-02T09:40:23.223Z,28.51
2022-08-02T09:41:22.352Z,28.58
2022-08-02T09:42:22.323Z,28.87
2022-08-02T09:43:23.264Z,29.13
2022-08-02T09:44:22.282Z,29.23
2022-08-02T09:45:23.303Z,29.18
2022-08-02T09:46:24.340Z,29.13
2022-08-02T09:47:22.232Z,29.07
2022-08-02T09:48:22.411Z,29.19
2022-08-02T09:49:22.335Z,29.25
2022-08-02T09:50:22.228Z,29.50
2022-08-02T09:51:22.183Z,29.52
2022-08-02T09:52:22.268Z,29.49
2022-08-02T09:53:23.167Z,29.13
2022-08-02T09:54:22.238Z,28.87
2022-08-02T09:55:22.128Z,28.70
2022-08-02T09:56:35.588Z,28.84
2022-08-02T09:57:23.151Z,29.06
2022-08-02T09:58:22.093Z,29.31
2022-08-02T09:59:24.085Z,29.55
2022-08-02T10:00:37.166Z,29.74
2022-08-02T10:01:37.077Z,29.92
2022-08-02T10:02:23.121Z,30.00
2022-08-02T10:03:22.924Z,29.70
2022-08-02T10:04:24.521Z,29.34
2022-08-02T10:05:21.976Z,29.19
2022-08-02T10:06:22.013Z,29.33
2022-08-02T10:07:22.569Z,29.44
2022-08-02T10:08:22.089Z,29.60
2022-08-02T10:09:21.997Z,29.63
2022-08-02T10:10:21.947Z,29.66
2022-08-02T10:11:22.034Z,29.92
2022-08-02T10:12:21.927Z,30.15
2022-08-02T10:13:22.268Z,30.43
2022-08-02T10:14:22.040Z,30.56
2022-08-02T10:15:27.005Z,30.61
2022-08-02T10:16:22.889Z,30.86
2022-08-02T10:17:21.830Z,30.75
2022-08-02T10:18:37.503Z,30.94
2022-08-02T10:20:00.805Z,31.15
2022-08-02T10:20:22.789Z,31.21
2022-08-02T10:21:21.783Z,31.36
2022-08-02T10:22:21.790Z,31.61
2022-08-02T10:23:21.769Z,31.73
2022-08-02T10:24:21.793Z,31.88
2022-08-02T10:25:21.733Z,32.24
2022-08-02T10:26:21.731Z,32.47
2022-08-02T10:27:21.729Z,32.51
2022-08-02T10:28:21.752Z,32.48
2022-08-02T10:29:21.705Z,32.25
2022-08-02T10:30:21.693Z,32.00
2022-08-02T10:31:21.657Z,31.92
2022-08-02T10:32:22.330Z,31.67
2022-08-02T10:33:21.874Z,31.08
2022-08-02T10:34:21.655Z,30.78
2022-08-02T10:35:25.538Z,30.83
2022-08-02T10:36:21.633Z,30.98
2022-08-02T10:37:22.350Z,31.13
2022-08-02T10:38:21.918Z,31.45
2022-08-02T10:39:21.639Z,31.65
2022-08-02T10:40:21.541Z,31.85
2022-08-02T10:41:21.567Z,31.77
2022-08-02T10:42:21.680Z,31.76
2022-08-02T10:43:21.529Z,31.75
2022-08-02T10:44:24.874Z,31.82
2022-08-02T10:45:21.541Z,31.91
2022-08-02T10:46:21.643Z,31.82
2022-08-02T10:47:21.520Z,31.65
2022-08-02T10:48:21.500Z,31.72
2022-08-02T10:49:39.196Z,31.72
2022-08-02T10:50:22.490Z,31.91
2022-08-02T10:51:24.583Z,31.96
2022-08-02T10:52:21.426Z,31.87
2022-08-02T10:53:21.484Z,31.72
2022-08-02T10:54:21.400Z,31.84
2022-08-02T10:55:22.396Z,31.91
2022-08-02T10:56:21.384Z,31.53
2022-08-02T10:57:21.371Z,31.54
2022-08-02T10:58:21.384Z,31.70
2022-08-02T10:59:22.354Z,31.95
2022-08-02T11:00:21.367Z,31.98
2022-08-02T11:01:21.425Z,31.67
2022-08-02T11:02:21.307Z,31.72
2022-08-02T11:03:21.326Z,31.96
2022-08-02T11:04:21.612Z,32.17
2022-08-02T11:05:21.257Z,32.44
2022-08-02T11:06:25.461Z,32.58
2022-08-02T11:07:22.252Z,32.73
2022-08-02T11:08:22.199Z,32.86
2022-08-02T11:09:21.258Z,32.98
2022-08-02T11:10:21.277Z,33.14
2022-08-02T11:11:53.864Z,32.85
2022-08-02T11:12:22.286Z,32.57
2022-08-02T11:13:21.202Z,32.74
2022-08-02T11:14:21.293Z,32.92
2022-08-02T11:15:21.353Z,32.91
2022-08-02T11:16:21.285Z,33.03
2022-08-02T11:17:21.101Z,33.22
2022-08-02T11:18:21.145Z,33.45
2022-08-02T11:19:21.104Z,33.31
2022-08-02T11:20:21.133Z,33.55
2022-08-02T11:21:21.126Z,33.48
2022-08-02T11:22:25.477Z,33.43
2022-08-02T11:23:21.056Z,33.41
2022-08-02T11:24:22.036Z,33.67
2022-08-02T11:25:21.118Z,33.80
2022-08-02T11:26:21.037Z,33.85
2022-08-02T11:27:21.751Z,33.74
2022-08-02T11:28:24.836Z,33.76
2022-08-02T11:29:21.141Z,33.60
2022-08-02T11:30:26.417Z,33.13
2022-08-02T11:31:21.982Z,33.13
2022-08-02T11:32:20.947Z,33.13
2022-08-02T11:33:20.980Z,33.07
2022-08-02T11:34:36.912Z,32.91
2022-08-02T11:35:22.065Z,32.88
2022-08-02T11:36:21.072Z,32.64
2022-08-02T11:37:20.948Z,32.64
2022-08-02T11:38:20.929Z,32.89
2022-08-02T11:39:20.892Z,33.36
2022-08-02T11:40:21.379Z,33.55
2022-08-02T11:41:39.357Z,33.89
2022-08-02T11:42:21.887Z,34.26
2022-08-02T11:43:20.933Z,34.36
2022-08-02T11:44:22.713Z,34.64
2022-08-02T11:45:22.825Z,34.86
2022-08-02T11:46:20.822Z,35.02
2022-08-02T11:47:20.859Z,35.40
2022-08-02T11:48:20.880Z,35.42
2022-08-02T11:49:20.925Z,34.74
2022-08-02T11:50:20.709Z,34.04
2022-08-02T11:51:21.716Z,33.58
2022-08-02T11:52:20.703Z,33.06
2022-08-02T11:53:20.738Z,32.66
2022-08-02T11:54:20.742Z,32.27
2022-08-02T11:55:20.789Z,31.87
2022-08-02T11:56:21.873Z,31.61
2022-08-02T11:57:21.267Z,31.82
2022-08-02T11:58:20.961Z,31.98
2022-08-02T11:59:20.732Z,32.18
2022-08-02T12:00:21.767Z,32.52
2022-08-02T12:01:20.707Z,32.85
2022-08-02T12:02:20.880Z,33.13
2022-08-02T12:03:23.956Z,33.26
2022-08-02T12:04:22.592Z,32.61
2022-08-02T12:05:20.753Z,32.25
2022-08-02T12:06:21.073Z,32.10
2022-08-02T12:07:20.558Z,31.79
2022-08-02T12:08:25.385Z,31.26
2022-08-02T12:09:20.575Z,30.96
2022-08-02T12:10:21.933Z,31.23
2022-08-02T12:11:21.494Z,31.54
2022-08-02T12:12:20.508Z,31.73
2022-08-02T12:13:21.574Z,31.91
2022-08-02T12:14:20.459Z,31.96
2022-08-02T12:15:20.472Z,32.15
2022-08-02T12:16:20.421Z,32.39
2022-08-02T12:17:20.555Z,32.42
2022-08-02T12:18:20.390Z,32.06
2022-08-02T12:19:20.380Z,31.92
2022-08-02T12:20:20.410Z,31.85
2022-08-02T12:21:20.502Z,31.73
2022-08-02T12:22:24.381Z,31.55
2022-08-02T12:23:21.322Z,31.53
2022-08-02T12:24:20.297Z,31.57
2022-08-02T12:25:34.462Z,31.67
2022-08-02T12:26:21.252Z,32.18
2022-08-02T12:27:20.321Z,32.39
2022-08-02T12:28:20.257Z,32.80
2022-08-02T12:29:58.724Z,33.33
2022-08-02T12:30:27.899Z,33.42
2022-08-02T12:31:21.254Z,33.78
2022-08-02T12:32:20.205Z,33.82
2022-08-02T12:33:20.234Z,33.83
2022-08-02T12:34:20.175Z,34.11
2022-08-02T12:35:26.377Z,34.34
2022-08-02T12:36:21.155Z,34.73
2022-08-02T12:37:20.168Z,34.53
2022-08-02T12:38:20.128Z,34.07
2022-08-02T12:39:20.205Z,33.80
2022-08-02T12:40:24.240Z,34.22
2022-08-02T12:41:30.502Z,34.44
2022-08-02T12:42:21.071Z,34.44
2022-08-02T12:43:20.100Z,34.39
2022-08-02T12:44:20.103Z,34.34
2022-08-02T12:45:20.062Z,34.60
2022-08-02T12:46:20.180Z,35.02
2022-08-02T12:47:21.447Z,35.36
2022-08-02T12:48:20.011Z,35.20
2022-08-02T12:49:20.145Z,35.28
2022-08-02T12:50:20.034Z,35.51
2022-08-02T12:51:19.964Z,35.64
2022-08-02T12:52:19.941Z,35.44
2022-08-02T12:53:20.043Z,35.15
2022-08-02T12:54:20.026Z,34.99
2022-08-02T12:55:20.945Z,34.98
2022-08-02T12:56:19.994Z,35.07
2022-08-02T12:57:19.955Z,35.25
2022-08-02T12:58:19.981Z,35.58
2022-08-02T12:59:19.946Z,35.82
2022-08-02T13:00:19.870Z,35.54
2022-08-02T13:01:19.965Z,35.33
2022-08-02T13:02:20.467Z,35.15
2022-08-02T13:04:09.361Z,34.98
2022-08-02T13:04:20.841Z,35.10